Time;durP1;ratioP1;P1;durP2;ratioP2;P2;SDS_P1;SDS_P2;PMS_P1;PMS_P2;Temp;Humidity;BMP_temperature;BMP_pressure;BME280_temperature;BME280_humidity;BME280_pressure;Samples;Min_cycle;Max_cycle;Signal;HPM_P1;HPM_P2
2023/06/20 00:00:07;;;;;;;7.05;3.80;;;;;;;23.47;59.28;100612.28;5033013;28;20062;-64
2023/06/20 00:02:32;;;;;;;6.10;3.35;;;;;;;23.42;59.84;100629.22;5034845;28;20055;-64
2023/06/20 00:05:00;;;;;;;5.30;3.90;;;;;;;23.36;60.38;100632.25;5033798;28;20045;-63
2023/06/20 00:07:25;;;;;;;4.07;3.03;;;;;;;23.31;60.98;100639.63;5035438;28;20056;-64
2023/06/20 00:09:51;;;;;;;5.63;3.75;;;;;;;23.24;61.58;100650.66;5030842;28;20036;-64
2023/06/20 00:12:16;;;;;;;4.55;3.65;;;;;;;23.17;62.67;100654.59;5034116;28;20136;-64
2023/06/20 00:14:41;;;;;;;4.75;3.50;;;;;;;23.06;63.65;100654.41;5035844;28;20060;-64
2023/06/20 00:17:07;;;;;;;7.00;3.53;;;;;;;22.92;64.84;100658.72;5032596;28;20049;-64
2023/06/20 00:19:32;;;;;;;5.15;3.65;;;;;;;22.80;65.25;100654.19;5034946;28;20037;-64
2023/06/20 00:21:57;;;;;;;4.88;3.40;;;;;;;22.70;66.79;100652.22;5036407;28;20099;-64
2023/06/20 00:24:23;;;;;;;5.32;3.80;;;;;;;22.58;67.97;100652.94;5033640;28;20140;-65
2023/06/20 00:26:48;;;;;;;4.97;3.80;;;;;;;22.42;70.02;100646.88;5033796;28;20112;-65
2023/06/20 00:29:13;;;;;;;6.18;4.18;;;;;;;22.27;71.84;100651.22;5033970;28;20386;-65
2023/06/20 00:31:42;;;;;;;4.90;3.90;;;;;;;22.18;73.59;100643.84;5032252;28;20040;-65
2023/06/20 00:34:07;;;;;;;6.18;3.42;;;;;;;22.09;75.28;100637.34;5026895;28;20045;-65
2023/06/20 00:36:33;;;;;;;5.20;3.85;;;;;;;22.07;76.07;100641.88;5031712;28;20090;-65
2023/06/20 00:38:58;;;;;;;5.22;4.28;;;;;;;22.05;76.90;100630.59;5031080;28;20033;-65
2023/06/20 00:41:23;;;;;;;4.43;3.85;;;;;;;22.04;77.28;100642.03;5033483;28;20168;-65
2023/06/20 00:43:49;;;;;;;6.18;4.30;;;;;;;22.01;78.10;100644.84;5035230;28;20843;-65
2023/06/20 00:46:22;;;;;;;5.40;4.22;;;;;;;22.00;78.62;100647.56;5040379;28;20037;-65
2023/06/20 00:48:48;;;;;;;9.70;4.55;;;;;;;22.02;78.99;100643.91;5031091;28;20071;-65
2023/06/20 00:51:15;;;;;;;6.13;4.40;;;;;;;22.01;77.95;100638.72;5033736;28;20033;-65
2023/06/20 00:53:42;;;;;;;6.03;4.40;;;;;;;21.98;77.88;100636.28;5035563;28;20120;-65
2023/06/20 00:56:09;;;;;;;4.97;3.90;;;;;;;21.96;77.24;100631.09;5033554;28;20826;-65
2023/06/20 00:58:35;;;;;;;5.88;3.95;;;;;;;21.96;77.08;100631.09;5030790;28;20040;-64
2023/06/20 01:01:00;;;;;;;4.60;3.92;;;;;;;21.99;76.10;100623.03;5033938;28;20525;-64
2023/06/20 01:03:25;;;;;;;5.13;3.80;;;;;;;22.00;75.50;100626.50;5035747;28;20045;-64
2023/06/20 01:06:04;;;;;;;4.97;3.65;;;;;;;22.00;75.35;100629.97;5032418;28;20034;-64
2023/06/20 01:08:54;;;;;;;5.30;3.47;;;;;;;21.94;75.45;100630.31;5032173;28;20446;-65
2023/06/20 01:11:26;;;;;;;5.15;3.45;;;;;;;21.84;76.39;100650.22;5028219;28;20037;-65
2023/06/20 01:14:05;;;;;;;4.03;3.05;;;;;;;21.74;77.18;100638.50;5036012;28;20705;-65
2023/06/20 01:17:17;;;;;;;4.40;3.28;;;;;;;21.67;77.97;100650.34;5034977;28;20045;-66
2023/06/20 01:20:09;;;;;;;4.95;3.95;;;;;;;21.56;78.84;100648.28;5033828;28;20512;-65
2023/06/20 01:22:43;;;;;;;4.80;3.53;;;;;;;21.48;79.22;100639.94;5039345;28;20040;-65
2023/06/20 01:25:15;;;;;;;6.13;3.95;;;;;;;21.44;79.74;100641.03;5035511;28;20123;-66
2023/06/20 01:27:54;;;;;;;4.47;3.65;;;;;;;21.39;79.07;100636.97;5036364;28;20746;-65
2023/06/20 01:30:27;;;;;;;4.53;3.42;;;;;;;21.35;78.87;100635.41;5037748;28;20529;-65
2023/06/20 01:32:57;;;;;;;4.53;3.58;;;;;;;21.35;78.55;100632.78;5031385;28;20037;-65
2023/06/20 01:35:28;;;;;;;3.80;3.40;;;;;;;21.36;78.94;100639.75;5035130;28;20037;-65
2023/06/20 01:38:01;;;;;;;6.20;3.75;;;;;;;21.37;78.82;100638.84;5013874;28;20049;-65
2023/06/20 01:40:27;;;;;;;5.07;4.13;;;;;;;21.38;79.30;100636.09;5038233;28;20839;-65
2023/06/20 01:42:58;;;;;;;4.68;3.85;;;;;;;21.41;79.41;100629.81;5036800;28;20066;-65
2023/06/20 01:45:26;;;;;;;5.10;3.75;;;;;;;21.43;78.46;100631.47;5033465;28;20025;-64
2023/06/20 01:47:56;;;;;;;6.72;3.53;;;;;;;21.48;78.02;100634.69;5036658;28;20040;-65
2023/06/20 01:50:24;;;;;;;4.45;3.80;;;;;;;21.51;77.81;100636.28;5036575;28;20060;-65
2023/06/20 01:52:52;;;;;;;4.85;3.78;;;;;;;21.59;77.38;100627.06;5037217;28;20037;-65
2023/06/20 01:55:21;;;;;;;3.80;3.42;;;;;;;21.59;77.52;100626.22;5036337;28;21759;-65
2023/06/20 01:57:47;;;;;;;5.80;3.50;;;;;;;21.62;77.05;100626.03;5037412;28;20087;-65
2023/06/20 02:00:14;;;;;;;4.00;3.47;;;;;;;21.62;76.56;100623.41;5035562;28;20044;-65
2023/06/20 02:02:41;;;;;;;4.93;3.38;;;;;;;21.64;75.93;100621.56;5036041;28;20033;-64
2023/06/20 02:05:10;;;;;;;5.28;3.17;;;;;;;21.65;75.73;100615.34;5039634;28;20041;-65
2023/06/20 02:07:36;;;;;;;3.50;3.20;;;;;;;21.66;75.71;100625.81;5036144;28;20061;-64
2023/06/20 02:10:03;;;;;;;3.58;2.80;;;;;;;21.68;75.71;100630.97;5035961;28;20037;-62
2023/06/20 02:12:30;;;;;;;4.00;3.50;;;;;;;21.67;76.14;100627.47;5041755;28;20083;-62
2023/06/20 02:14:56;;;;;;;5.07;3.60;;;;;;;21.69;75.87;100622.16;5043423;28;20052;-62
2023/06/20 02:17:22;;;;;;;4.32;3.50;;;;;;;21.68;75.63;100623.94;5036001;28;20047;-62
2023/06/20 02:19:48;;;;;;;6.18;3.50;;;;;;;21.69;75.62;100625.63;5038056;28;20036;-62
2023/06/20 02:22:16;;;;;;;4.53;3.70;;;;;;;21.69;75.68;100624.78;5039554;28;20095;-62
2023/06/20 02:24:45;;;;;;;7.03;3.78;;;;;;;21.68;75.89;100628.34;5039313;28;20060;-62
2023/06/20 02:27:14;;;;;;;3.53;2.83;;;;;;;21.67;76.00;100631.91;5038749;28;20545;-64
2023/06/20 02:29:42;;;;;;;5.93;3.70;;;;;;;21.62;76.37;100629.53;5036484;28;20110;-64
2023/06/20 02:32:11;;;;;;;4.28;3.08;;;;;;;21.60;76.34;100627.91;5044800;28;20413;-64
2023/06/20 02:34:41;;;;;;;4.88;3.70;;;;;;;21.58;76.68;100624.53;5038333;28;20368;-64
2023/06/20 02:37:07;;;;;;;4.78;3.78;;;;;;;21.53;77.03;100626.53;5034986;28;20049;-64
2023/06/20 02:39:33;;;;;;;4.35;3.20;;;;;;;21.49;77.48;100641.63;5040662;28;20032;-64
2023/06/20 02:41:59;;;;;;;5.68;3.45;;;;;;;21.46;78.24;100636.53;5036342;28;20043;-65
2023/06/20 02:44:25;;;;;;;5.47;3.42;;;;;;;21.43;78.14;100644.63;5025262;28;20510;-64
2023/06/20 02:47:12;;;;;;;3.83;3.03;;;;;;;21.41;78.06;100633.31;5038244;28;20076;-64
2023/06/20 02:50:07;;;;;;;5.18;3.55;;;;;;;21.41;77.56;100640.34;5038351;28;20037;-65
2023/06/20 02:53:11;;;;;;;7.00;3.60;;;;;;;21.40;77.59;100642.16;5048070;28;20041;-64
2023/06/20 02:55:45;;;;;;;4.00;3.13;;;;;;;21.45;77.84;100640.13;4998600;28;20045;-64
2023/06/20 02:58:13;;;;;;;3.97;3.38;;;;;;;21.49;77.28;100638.16;5028198;28;20044;-64
2023/06/20 03:00:43;;;;;;;4.40;3.40;;;;;;;21.50;77.38;100632.81;5039749;28;20039;-64
2023/06/20 03:03:12;;;;;;;5.15;3.28;;;;;;;21.52;77.29;100643.25;5035592;28;20120;-64
2023/06/20 03:05:44;;;;;;;4.10;3.50;;;;;;;21.53;76.96;100634.41;5035551;28;20044;-64
2023/06/20 03:08:13;;;;;;;4.30;3.15;;;;;;;21.54;76.61;100628.22;5035252;28;20549;-65
2023/06/20 03:10:40;;;;;;;4.82;3.20;;;;;;;21.56;76.10;100629.00;5033736;28;20041;-64
2023/06/20 03:13:06;;;;;;;6.13;3.92;;;;;;;21.56;76.48;100629.88;5035286;28;20041;-64
2023/06/20 03:15:31;;;;;;;4.00;3.55;;;;;;;21.57;76.14;100630.72;5032049;28;20039;-64
2023/06/20 03:18:00;;;;;;;4.72;3.35;;;;;;;21.58;75.95;100630.63;5031409;28;20052;-64
2023/06/20 03:20:28;;;;;;;4.40;3.30;;;;;;;21.59;76.14;100644.63;5031577;28;20418;-64
2023/06/20 03:22:53;;;;;;;4.53;3.30;;;;;;;21.58;76.14;100650.84;5037053;28;20513;-64
2023/06/20 03:25:18;;;;;;;3.90;3.22;;;;;;;21.56;76.18;100652.69;5035654;28;20045;-64
2023/06/20 03:27:43;;;;;;;5.18;3.58;;;;;;;21.56;76.26;100644.78;5036211;28;20406;-64
2023/06/20 03:30:09;;;;;;;4.70;3.90;;;;;;;21.57;76.23;100649.13;5034456;28;20040;-64
2023/06/20 03:32:35;;;;;;;4.18;3.40;;;;;;;21.57;75.87;100650.00;5034555;28;20584;-64
2023/06/20 03:35:00;;;;;;;3.90;3.50;;;;;;;21.59;75.81;100655.16;5036298;28;20041;-64
2023/06/20 03:37:25;;;;;;;7.25;3.72;;;;;;;21.60;75.63;100655.09;5025586;28;20140;-64
2023/06/20 03:39:50;;;;;;;3.88;3.28;;;;;;;21.61;75.56;100654.13;5032513;28;20068;-64
2023/06/20 03:42:16;;;;;;;6.32;3.58;;;;;;;21.61;75.32;100638.34;5032126;28;20029;-64
2023/06/20 03:44:41;;;;;;;4.85;4.35;;;;;;;21.63;75.39;100638.28;5036610;28;20025;-64
2023/06/20 03:47:06;;;;;;;4.03;3.63;;;;;;;21.58;75.39;100633.25;5034614;28;20076;-64
2023/06/20 03:49:32;;;;;;;4.78;3.90;;;;;;;21.50;76.15;100635.44;5031513;28;20120;-65
2023/06/20 03:52:01;;;;;;;6.05;3.75;;;;;;;21.41;76.78;100650.88;5035282;28;20036;-64
2023/06/20 03:54:26;;;;;;;4.57;4.00;;;;;;;21.33;77.51;100653.94;5031041;28;20148;-64
2023/06/20 03:56:52;;;;;;;5.65;3.72;;;;;;;21.30;78.12;100659.34;5030453;28;20504;-64
2023/06/20 03:59:18;;;;;;;4.82;3.70;;;;;;;21.29;78.50;100649.75;5033847;28;20064;-64
2023/06/20 04:01:43;;;;;;;4.63;3.47;;;;;;;21.30;78.44;100655.88;5034812;28;20040;-64
2023/06/20 04:04:09;;;;;;;3.88;3.35;;;;;;;21.30;78.51;100656.72;5036675;28;20040;-64
2023/06/20 04:06:35;;;;;;;7.18;4.55;;;;;;;21.33;78.47;100661.81;5033702;28;20033;-64
2023/06/20 04:09:00;;;;;;;6.00;4.40;;;;;;;21.37;78.06;100659.88;5032584;28;20041;-64
2023/06/20 04:11:25;;;;;;;6.32;4.53;;;;;;;21.40;77.70;100663.19;5037279;28;20978;-64
2023/06/20 04:13:51;;;;;;;4.32;3.80;;;;;;;21.42;77.35;100658.69;5017276;28;20033;-64
2023/06/20 04:16:16;;;;;;;4.75;3.42;;;;;;;21.43;77.23;100654.28;5037543;28;20063;-64
2023/06/20 04:18:42;;;;;;;5.22;4.30;;;;;;;21.42;77.40;100658.69;5028257;28;20041;-64
2023/06/20 04:21:07;;;;;;;5.53;4.53;;;;;;;21.44;78.04;100659.44;5033150;28;20506;-64
2023/06/20 04:23:33;;;;;;;6.82;4.60;;;;;;;21.45;77.72;100660.28;5019428;28;20130;-64
2023/06/20 04:25:58;;;;;;;6.72;4.05;;;;;;;21.48;78.00;100652.25;5033804;28;20037;-62
2023/06/20 04:28:24;;;;;;;7.85;4.20;;;;;;;21.49;77.91;100654.75;5031037;28;20037;-64
2023/06/20 04:30:51;;;;;;;6.00;4.18;;;;;;;21.52;78.16;100656.41;5034232;28;20033;-64
2023/06/20 04:33:16;;;;;;;6.50;4.28;;;;;;;21.55;78.15;100656.25;5038837;28;20028;-64
2023/06/20 04:35:42;;;;;;;5.88;4.70;;;;;;;21.57;78.25;100660.50;5033857;28;20071;-63
2023/06/20 04:38:07;;;;;;;5.13;4.30;;;;;;;21.60;78.22;100662.97;5038628;28;20506;-64
2023/06/20 04:40:32;;;;;;;5.03;4.53;;;;;;;21.62;77.88;100660.25;5034173;28;20037;-63
2023/06/20 04:42:58;;;;;;;10.70;5.07;;;;;;;21.61;78.40;100663.81;5037247;28;20127;-64
2023/06/20 04:45:23;;;;;;;6.88;4.97;;;;;;;21.56;78.78;100665.84;5034220;28;20033;-64
2023/06/20 04:47:52;;;;;;;7.60;4.80;;;;;;;21.55;78.81;100664.97;5037358;28;20198;-64
2023/06/20 04:50:18;;;;;;;7.40;5.32;;;;;;;21.52;79.18;100664.28;5030896;28;20045;-64
2023/06/20 04:52:44;;;;;;;8.15;5.38;;;;;;;21.52;79.49;100664.28;5030231;28;20898;-64
2023/06/20 04:55:10;;;;;;;7.75;5.55;;;;;;;21.52;79.47;100664.28;5035449;28;20052;-63
2023/06/20 04:57:35;;;;;;;7.75;4.53;;;;;;;21.53;79.69;100664.19;5034756;28;20033;-63
2023/06/20 05:00:02;;;;;;;6.47;4.78;;;;;;;21.52;79.73;100673.00;5040988;28;20677;-64
2023/06/20 05:02:28;;;;;;;7.75;4.57;;;;;;;21.49;80.41;100669.72;5031094;28;20046;-63
2023/06/20 05:04:54;;;;;;;7.88;5.15;;;;;;;21.48;80.72;100668.88;5036443;28;20056;-63
2023/06/20 05:07:21;;;;;;;8.45;5.45;;;;;;;21.50;80.99;100671.41;5038225;28;20069;-64
2023/06/20 05:09:47;;;;;;;7.97;5.07;;;;;;;21.55;81.03;100672.88;5036810;28;20461;-64
2023/06/20 05:12:12;;;;;;;7.93;5.05;;;;;;;21.65;80.98;100670.59;5038863;28;20204;-62
2023/06/20 05:14:38;;;;;;;8.20;6.03;;;;;;;21.76;80.49;100666.44;5036135;28;20040;-63
2023/06/20 05:17:03;;;;;;;8.20;5.40;;;;;;;21.86;80.07;100664.13;5048291;28;20124;-64
2023/06/20 05:19:29;;;;;;;7.90;5.72;;;;;;;21.96;79.67;100664.47;5039548;28;21142;-63
2023/06/20 05:21:54;;;;;;;7.65;5.47;;;;;;;22.14;78.96;100672.19;5036609;28;20040;-64
2023/06/20 05:24:19;;;;;;;8.10;5.55;;;;;;;22.35;77.78;100657.75;5038169;28;20044;-63
2023/06/20 05:26:44;;;;;;;6.78;5.38;;;;;;;22.40;77.33;100654.88;5027378;28;20036;-64
2023/06/20 05:29:10;;;;;;;7.72;5.75;;;;;;;22.44;77.29;100661.69;5031819;28;20047;-64
2023/06/20 05:31:41;;;;;;;7.50;5.47;;;;;;;22.45;77.14;100665.13;5037334;28;20751;-64
2023/06/20 05:34:07;;;;;;;7.82;4.70;;;;;;;22.47;76.68;100664.13;5031178;28;20045;-63
2023/06/20 05:36:32;;;;;;;6.38;4.97;;;;;;;22.35;77.07;100670.09;5029769;28;20550;-63
2023/06/20 05:38:58;;;;;;;7.43;5.72;;;;;;;22.33;76.83;100669.31;5017454;28;20083;-63
2023/06/20 05:41:25;;;;;;;8.45;5.47;;;;;;;22.34;76.88;100666.59;5036533;28;20067;-63
2023/06/20 05:43:50;;;;;;;9.40;5.78;;;;;;;22.28;77.21;100672.22;5037216;28;20037;-63
2023/06/20 05:46:16;;;;;;;8.63;5.55;;;;;;;22.39;77.31;100676.03;5036802;28;20258;-63
2023/06/20 05:48:41;;;;;;;6.93;5.18;;;;;;;22.64;76.52;100671.88;5035424;28;20686;-63
2023/06/20 05:51:11;;;;;;;6.70;5.07;;;;;;;22.92;75.23;100666.63;5041429;28;20064;-62
2023/06/20 05:53:41;;;;;;;6.50;5.13;;;;;;;23.09;74.62;100670.03;5035729;28;20041;-63
2023/06/20 05:56:07;;;;;;;7.45;4.57;;;;;;;23.15;74.00;100665.25;5037023;28;20136;-63
2023/06/20 05:58:33;;;;;;;6.03;5.00;;;;;;;23.23;73.80;100675.34;5034527;28;20651;-63
2023/06/20 06:00:58;;;;;;;9.55;4.95;;;;;;;23.40;73.55;100665.44;5036541;28;20037;-63
2023/06/20 06:03:24;;;;;;;5.93;4.93;;;;;;;23.39;73.77;100669.00;5039311;28;20041;-63
2023/06/20 06:05:49;;;;;;;5.80;4.88;;;;;;;23.44;72.49;100659.03;5036037;28;20522;-63
2023/06/20 06:08:15;;;;;;;6.25;4.68;;;;;;;23.51;73.22;100669.19;5036371;28;20037;-63
2023/06/20 06:10:41;;;;;;;12.13;4.93;;;;;;;23.54;72.80;100669.81;5036384;28;20037;-63
2023/06/20 06:13:07;;;;;;;5.97;4.82;;;;;;;23.60;72.16;100674.72;5031923;28;20041;-63
2023/06/20 06:15:32;;;;;;;7.03;4.93;;;;;;;23.57;72.30;100669.63;5031008;28;20032;-63
2023/06/20 06:17:58;;;;;;;7.13;4.70;;;;;;;23.49;72.30;100671.06;5033244;28;20032;-63
2023/06/20 06:20:24;;;;;;;5.80;5.05;;;;;;;23.38;73.21;100672.59;5026516;28;20510;-64
2023/06/20 06:22:50;;;;;;;6.22;5.07;;;;;;;23.30;73.96;100677.47;5027167;28;20402;-63
2023/06/20 06:25:15;;;;;;;7.85;5.40;;;;;;;23.32;73.86;100677.41;5026740;28;20064;-63
2023/06/20 06:27:41;;;;;;;5.32;4.63;;;;;;;23.33;73.30;100674.66;5025723;28;20075;-63
2023/06/20 06:30:08;;;;;;;5.20;4.65;;;;;;;23.41;73.12;100677.69;5017462;28;20033;-63
2023/06/20 06:32:34;;;;;;;5.95;5.00;;;;;;;23.52;73.19;100676.13;5037418;28;20437;-63
2023/06/20 06:35:00;;;;;;;7.03;5.25;;;;;;;23.60;73.01;100666.78;5039694;28;20045;-62
2023/06/20 06:37:30;;;;;;;5.82;4.53;;;;;;;23.58;72.91;100668.69;5029762;28;20041;-63
2023/06/20 06:39:59;;;;;;;7.30;4.88;;;;;;;23.68;72.11;100651.34;5036253;28;20033;-64
2023/06/20 06:42:25;;;;;;;7.47;5.22;;;;;;;23.72;72.07;100659.91;5037029;28;20048;-64
2023/06/20 06:44:51;;;;;;;5.93;5.00;;;;;;;23.86;71.94;100659.88;5037896;28;20029;-63
2023/06/20 06:47:16;;;;;;;6.75;5.10;;;;;;;23.90;71.71;100664.81;5039572;28;20048;-63
2023/06/20 06:49:41;;;;;;;5.15;4.22;;;;;;;23.94;70.82;100653.16;5036489;28;20123;-64
2023/06/20 06:52:08;;;;;;;5.68;4.10;;;;;;;24.01;70.36;100642.19;5035441;28;20060;-63
2023/06/20 06:54:33;;;;;;;9.60;4.93;;;;;;;24.09;69.45;100632.81;5035788;28;20035;-63
2023/06/20 06:56:58;;;;;;;4.85;3.97;;;;;;;24.19;70.19;100643.63;5034891;28;20045;-63
2023/06/20 06:59:24;;;;;;;5.28;4.20;;;;;;;24.22;69.03;100630.22;5030820;28;20037;-64
2023/06/20 07:01:49;;;;;;;6.43;5.10;;;;;;;24.26;68.60;100629.91;5046062;28;20041;-64
2023/06/20 07:04:14;;;;;;;5.30;4.25;;;;;;;24.28;68.84;100633.31;5034629;28;20029;-64
2023/06/20 07:06:40;;;;;;;7.30;4.70;;;;;;;24.30;68.72;100625.25;5037670;28;20048;-64
2023/06/20 07:09:06;;;;;;;4.93;4.43;;;;;;;24.31;68.61;100617.22;5035716;28;20032;-64
2023/06/20 07:11:31;;;;;;;5.07;4.20;;;;;;;24.38;68.40;100621.16;5034701;28;20574;-64
2023/06/20 07:13:56;;;;;;;6.22;4.30;;;;;;;24.50;68.01;100619.47;5030011;28;20037;-64
2023/06/20 07:16:22;;;;;;;6.40;4.60;;;;;;;24.54;68.19;100621.81;5036896;28;20044;-64
2023/06/20 07:18:47;;;;;;;6.97;4.63;;;;;;;24.62;67.88;100609.84;5033732;28;20037;-65
2023/06/20 07:21:12;;;;;;;5.85;4.70;;;;;;;24.74;67.15;100601.09;5016866;28;20039;-65
2023/06/20 07:23:38;;;;;;;5.30;4.78;;;;;;;24.85;66.97;100595.91;5040702;28;20059;-65
2023/06/20 07:26:03;;;;;;;5.55;5.03;;;;;;;24.88;66.21;100598.34;5038132;28;20035;-64
2023/06/20 07:28:29;;;;;;;8.18;5.10;;;;;;;24.91;65.97;100603.41;5035593;28;20045;-63
2023/06/20 07:30:55;;;;;;;6.25;5.05;;;;;;;24.99;66.07;100609.88;5033866;28;20497;-63
2023/06/20 07:33:20;;;;;;;5.18;4.60;;;;;;;25.13;65.23;100605.41;5035381;28;20090;-64
2023/06/20 07:35:46;;;;;;;5.28;4.75;;;;;;;25.26;65.50;100604.44;5036703;28;20505;-64
2023/06/20 07:38:11;;;;;;;6.05;4.80;;;;;;;25.36;65.21;100601.94;5033999;28;20461;-64
2023/06/20 07:40:39;;;;;;;6.28;5.57;;;;;;;25.22;63.86;100584.44;5031967;28;20768;-64
2023/06/20 07:43:05;;;;;;;7.82;5.38;;;;;;;25.33;65.10;100603.03;5033866;28;20097;-64
2023/06/20 07:45:31;;;;;;;7.20;5.32;;;;;;;25.38;64.80;100587.66;5031505;28;20461;-64
2023/06/20 07:47:56;;;;;;;6.57;5.53;;;;;;;25.43;64.66;100580.28;5036754;28;20055;-64
2023/06/20 07:50:21;;;;;;;5.55;4.50;;;;;;;25.51;65.29;100593.78;5032883;28;21032;-64
2023/06/20 07:52:47;;;;;;;6.22;5.63;;;;;;;25.47;63.88;100576.44;5031443;28;20033;-64
2023/06/20 07:55:12;;;;;;;6.45;5.07;;;;;;;25.45;64.16;100581.00;5017592;28;20067;-64
2023/06/20 07:57:37;;;;;;;6.50;5.35;;;;;;;25.61;63.60;100563.06;5037509;28;20044;-64
2023/06/20 08:00:07;;;;;;;10.98;5.93;;;;;;;25.76;63.72;100560.22;5038015;28;20033;-64
2023/06/20 08:02:33;;;;;;;6.15;5.15;;;;;;;25.86;63.41;100562.06;5038254;28;20037;-64
2023/06/20 08:04:58;;;;;;;6.57;5.18;;;;;;;26.01;63.18;100562.69;5032684;28;20065;-64
2023/06/20 08:07:23;;;;;;;7.18;5.65;;;;;;;26.06;62.85;100557.94;5029520;28;20060;-62
2023/06/20 08:09:49;;;;;;;7.25;5.40;;;;;;;26.10;62.82;100551.41;5031935;28;20033;-62
2023/06/20 08:12:14;;;;;;;6.93;5.38;;;;;;;26.09;62.18;100555.91;5036917;28;20056;-62
2023/06/20 08:14:39;;;;;;;7.63;4.80;;;;;;;26.25;63.58;100573.28;5035842;28;20135;-62
2023/06/20 08:17:05;;;;;;;6.45;5.68;;;;;;;26.24;62.34;100553.91;5033184;28;20692;-62
2023/06/20 08:19:30;;;;;;;7.28;5.00;;;;;;;26.34;61.52;100538.97;5013520;28;21780;-62
2023/06/20 08:21:55;;;;;;;7.03;5.63;;;;;;;26.38;62.02;100552.84;5035368;28;20413;-63
2023/06/20 08:24:21;;;;;;;6.50;5.07;;;;;;;26.54;61.69;100548.03;5031738;28;20088;-63
2023/06/20 08:26:46;;;;;;;5.95;5.35;;;;;;;26.68;61.31;100559.25;5017683;28;20174;-62
2023/06/20 08:29:12;;;;;;;6.85;5.35;;;;;;;26.67;60.27;100533.69;5035488;28;20045;-62
2023/06/20 08:31:37;;;;;;;6.47;5.03;;;;;;;26.65;60.74;100540.94;5038505;28;20831;-63
2023/06/20 08:34:04;;;;;;;7.03;5.65;;;;;;;26.62;60.77;100548.28;5035540;28;20033;-62
2023/06/20 08:36:29;;;;;;;5.95;5.35;;;;;;;26.73;61.63;100558.88;5031430;28;20029;-63
2023/06/20 08:38:55;;;;;;;6.90;5.25;;;;;;;26.92;61.28;100555.66;5029743;28;20071;-62
2023/06/20 08:41:26;;;;;;;5.95;5.05;;;;;;;27.02;60.62;100556.59;5035029;28;20060;-62
2023/06/20 08:43:52;;;;;;;6.07;4.88;;;;;;;27.11;60.58;100554.06;5042637;28;20033;-62
2023/06/20 08:46:18;;;;;;;6.35;5.57;;;;;;;27.11;60.85;100561.19;5041337;28;20035;-62
2023/06/20 08:48:44;;;;;;;7.35;5.55;;;;;;;27.23;61.28;100565.50;5040055;28;20123;-62
2023/06/20 08:51:14;;;;;;;7.82;5.78;;;;;;;27.48;60.79;100554.63;5038145;28;20031;-62
2023/06/20 08:53:42;;;;;;;8.27;6.00;;;;;;;27.62;59.37;100535.75;5038315;28;20115;-62
2023/06/20 08:56:08;;;;;;;6.20;5.60;;;;;;;27.74;59.27;100541.84;5028346;28;20099;-62
2023/06/20 08:58:33;;;;;;;6.80;5.22;;;;;;;27.87;58.89;100528.41;5041077;28;20038;-62
2023/06/20 09:00:58;;;;;;;5.70;5.18;;;;;;;27.87;59.17;100533.72;5023837;28;20045;-63
2023/06/20 09:03:24;;;;;;;5.40;4.90;;;;;;;27.66;58.42;100526.56;5042399;28;20036;-62
2023/06/20 09:05:49;;;;;;;6.60;5.13;;;;;;;27.51;58.38;100525.16;5027231;28;20570;-62
2023/06/20 09:08:15;;;;;;;6.28;5.57;;;;;;;27.53;59.18;100536.50;5035037;28;20073;-62
2023/06/20 09:10:41;;;;;;;6.10;5.38;;;;;;;27.67;58.44;100527.38;5033966;28;20437;-63
2023/06/20 09:13:08;;;;;;;5.35;4.85;;;;;;;27.64;57.84;100517.84;5034680;28;20064;-62
2023/06/20 09:15:34;;;;;;;6.63;4.88;;;;;;;27.59;58.00;100517.41;5031562;28;20383;-62
2023/06/20 09:18:01;;;;;;;7.50;4.95;;;;;;;27.72;57.75;100519.88;5037835;28;20036;-63
2023/06/20 09:20:28;;;;;;;6.03;5.43;;;;;;;27.76;57.39;100516.00;5017073;28;20037;-62
2023/06/20 09:22:54;;;;;;;6.80;5.38;;;;;;;27.89;57.41;100523.78;5039522;28;20595;-62
2023/06/20 09:25:22;;;;;;;6.05;5.47;;;;;;;27.79;56.60;100500.66;5038401;28;20044;-62
2023/06/20 09:27:48;;;;;;;9.23;5.82;;;;;;;28.17;56.26;100489.44;5036448;28;20060;-62
2023/06/20 09:30:13;;;;;;;7.35;5.00;;;;;;;28.47;56.10;100503.75;5045292;28;20448;-62
2023/06/20 09:32:40;;;;;;;5.72;4.90;;;;;;;28.70;56.00;100494.59;5040606;28;20052;-62
2023/06/20 09:35:20;;;;;;;6.75;5.13;;;;;;;28.81;54.71;100479.41;5032352;28;20089;-62
2023/06/20 09:37:48;;;;;;;8.20;5.47;;;;;;;28.76;54.75;100481.63;5029425;28;20771;-62
2023/06/20 09:40:15;;;;;;;6.97;4.90;;;;;;;28.83;54.90;100481.91;5036032;28;20047;-62
2023/06/20 09:42:42;;;;;;;4.95;4.47;;;;;;;28.65;55.72;100499.50;5036089;28;20665;-62
2023/06/20 09:45:11;;;;;;;6.00;5.03;;;;;;;28.81;55.44;100494.53;5037280;28;20726;-62
2023/06/20 09:47:40;;;;;;;6.35;4.97;;;;;;;28.97;54.34;100472.72;5033046;28;20098;-62
2023/06/20 09:50:16;;;;;;;7.07;5.25;;;;;;;29.00;54.25;100457.31;5027879;28;20068;-62
2023/06/20 09:53:07;;;;;;;5.72;4.82;;;;;;;29.33;53.92;100451.59;5039417;28;20029;-62
2023/06/20 09:55:35;;;;;;;5.65;4.68;;;;;;;29.50;53.38;100443.91;5035127;28;20059;-62
2023/06/20 09:58:02;;;;;;;6.97;5.30;;;;;;;29.72;52.25;100438.31;5037748;28;20045;-62
2023/06/20 10:00:30;;;;;;;7.25;4.90;;;;;;;29.74;52.89;100457.63;5031812;28;20745;-64
2023/06/20 10:02:59;;;;;;;7.03;4.88;;;;;;;29.78;51.55;100443.88;5034998;28;20057;-62
2023/06/20 10:05:27;;;;;;;5.28;4.78;;;;;;;29.48;52.57;100452.03;5037121;28;20088;-62
2023/06/20 10:07:57;;;;;;;5.97;4.55;;;;;;;29.70;51.85;100445.56;5034275;28;20043;-62
2023/06/20 10:10:23;;;;;;;6.32;4.50;;;;;;;29.87;51.41;100444.84;5034976;28;20096;-63
2023/06/20 10:12:49;;;;;;;5.85;4.78;;;;;;;29.91;51.49;100444.41;5036963;28;20033;-62
2023/06/20 10:15:15;;;;;;;5.93;4.53;;;;;;;30.00;51.62;100452.56;5039440;28;20043;-62
2023/06/20 10:17:48;;;;;;;6.75;5.22;;;;;;;30.14;50.84;100449.44;5036335;28;20063;-63
2023/06/20 10:20:29;;;;;;;5.00;4.60;;;;;;;30.05;50.50;100431.63;5035004;28;20044;-62
2023/06/20 10:22:59;;;;;;;6.13;5.15;;;;;;;29.93;51.48;100449.59;5016775;28;20041;-62
2023/06/20 10:25:26;;;;;;;7.57;5.35;;;;;;;29.97;50.85;100435.88;5035812;28;20036;-63
2023/06/20 10:27:57;;;;;;;5.13;4.63;;;;;;;30.08;51.18;100450.84;5034280;28;20033;-65
2023/06/20 10:30:50;;;;;;;5.28;4.70;;;;;;;30.18;49.77;100426.81;5035479;28;20044;-62
2023/06/20 10:33:26;;;;;;;5.82;4.88;;;;;;;30.23;50.16;100427.22;5038252;28;20041;-63
2023/06/20 10:36:04;;;;;;;6.45;4.88;;;;;;;30.44;49.58;100407.34;5043779;28;20048;-62
2023/06/20 10:38:31;;;;;;;5.80;4.97;;;;;;;30.44;49.48;100398.50;5035664;28;20032;-61
2023/06/20 10:41:23;;;;;;;6.93;4.85;;;;;;;30.39;49.21;100398.94;5036385;28;20083;-62
2023/06/20 10:43:56;;;;;;;4.95;4.50;;;;;;;30.32;49.05;100403.19;5025239;28;20128;-61
2023/06/20 10:46:29;;;;;;;5.18;4.38;;;;;;;30.39;48.55;100395.44;5035939;28;20064;-61
2023/06/20 10:48:55;;;;;;;8.85;4.85;;;;;;;30.30;48.70;100399.84;5033181;28;20076;-62
2023/06/20 10:51:21;;;;;;;6.85;4.78;;;;;;;30.49;49.00;100386.38;5036420;28;20064;-62
2023/06/20 10:53:46;;;;;;;5.90;4.72;;;;;;;30.63;49.15;100392.25;5036429;28;20072;-62
2023/06/20 10:56:26;;;;;;;5.00;4.50;;;;;;;30.99;48.15;100377.94;5032956;28;20044;-62
2023/06/20 10:58:51;;;;;;;5.47;4.60;;;;;;;31.26;47.86;100375.22;5035002;28;20036;-62
2023/06/20 11:01:18;;;;;;;8.10;4.70;;;;;;;31.39;46.90;100364.13;5036283;28;20045;-62
2023/06/20 11:03:45;;;;;;;4.72;4.25;;;;;;;31.58;45.90;100346.06;5032277;28;20099;-62
2023/06/20 11:06:14;;;;;;;6.47;5.15;;;;;;;31.54;46.33;100355.38;5033833;28;20024;-63
2023/06/20 11:08:42;;;;;;;5.50;5.00;;;;;;;31.66;46.12;100361.31;5031377;28;20159;-64
2023/06/20 11:11:08;;;;;;;5.97;4.57;;;;;;;31.80;46.29;100359.91;5035196;28;20171;-65
2023/06/20 11:13:43;;;;;;;5.50;4.88;;;;;;;31.99;45.73;100362.34;5036317;28;21085;-63
2023/06/20 11:16:19;;;;;;;5.22;4.28;;;;;;;31.81;45.33;100353.56;5031732;28;20073;-65
2023/06/20 11:18:44;;;;;;;7.20;4.10;;;;;;;32.02;44.10;100332.63;5026776;28;20037;-64
2023/06/20 11:21:10;;;;;;;6.05;4.38;;;;;;;31.99;45.11;100349.84;5035290;28;20710;-65
2023/06/20 11:23:35;;;;;;;6.90;4.20;;;;;;;31.50;45.60;100350.53;5034987;28;20043;-64
2023/06/20 11:26:01;;;;;;;5.25;4.38;;;;;;;31.01;46.43;100375.97;5038863;28;20087;-64